| time (UTC) | temp F | wind direction | speed MPH | gust MPH | rain 1hr in | rain 24hr in | rain mn in | humidity % | barometer mb |
| 20260906184558 | 67 | 150 | 8.0 | 16.0 | 0.16 | 0.38 | 0.38 | 92 | 1018.3 |
| 20260906183056 | 68 | 114 | 6.0 | 15.0 | 0.02 | 0.22 | 0.22 | 92 | 1018.1 |
| 20260906181557 | 68 | 88 | 3.0 | 9.0 | 0.05 | 0.22 | 0.22 | 93 | 1017.8 |
| 20260906180116 | 68 | 142 | 4.0 | 13.0 | 0.05 | 0.22 | 0.22 | 92 | 1017.9 |
| 20260906174557 | 69 | 86 | 4.0 | 9.0 | 0.06 | 0.22 | 0.22 | 91 | 1017.8 |
| 20260906173054 | 71 | 86 | 2.0 | 14.0 | 0.05 | 0.20 | 0.20 | 91 | 1017.9 |
| 20260906171559 | 71 | 70 | 2.0 | 5.0 | 0.02 | 0.17 | 0.17 | 93 | 1016.9 |
| 20260906170117 | 70 | 346 | 1.0 | 6.0 | 0.02 | 0.17 | 0.17 | 93 | 1016.7 |
| 20260906164600 | 70 | 317 | 2.0 | 4.0 | 0.02 | 0.16 | 0.16 | 92 | 1017.5 |
| 20260906163109 | 70 | 150 | 1.0 | 5.0 | 0.13 | 0.15 | 0.15 | 92 | 1017.3 |
| 20260906161549 | 70 | 127 | 3.0 | 8.0 | 0.15 | 0.15 | 0.15 | 93 | 1017.6 |
| 20260906160053 | 70 | 0 | 0.0 | 9.0 | 0.15 | 0.15 | 0.15 | 93 | 1017.4 |
| 20260906154559 | 71 | 153 | 4.0 | 21.0 | 0.13 | 0.13 | 0.13 | 87 | 1016.4 |
| 20260906153052 | 74 | 228 | 11.0 | 22.0 | 0.02 | 0.02 | 0.02 | 86 | 1017.0 |
| 20260906151549 | 76 | 151 | 5.0 | 10.0 | 0.00 | 0.00 | 0.00 | 92 | 1017.1 |
| 20260906150109 | 76 | 210 | 2.0 | 7.0 | 0.00 | 0.00 | 0.00 | 93 | 1017.0 |
| 20260906144551 | 76 | 141 | 3.0 | 8.0 | 0.00 | 0.14 | 0.00 | 93 | 1016.4 |
| 20260906143052 | 76 | 129 | 3.0 | 8.0 | 0.00 | 0.14 | 0.00 | 93 | 1016.0 |
| 20260906141549 | 75 | 145 | 3.0 | 10.0 | 0.00 | 0.14 | 0.00 | 93 | 1016.1 |
| 20260906140059 | 75 | 139 | 1.0 | 6.0 | 0.00 | 0.14 | 0.00 | 94 | 1016.3 |
| 20260906134559 | 75 | 114 | 1.0 | 6.0 | 0.00 | 0.41 | 0.00 | 94 | 1016.4 |
| 20260906133124 | 75 | 128 | 2.0 | 7.0 | 0.00 | 0.41 | 0.00 | 94 | 1016.4 |
| 20260906131547 | 75 | 129 | 3.0 | 8.0 | 0.00 | 0.41 | 0.00 | 94 | 1016.3 |
| 20260906130107 | 75 | 128 | 2.0 | 10.0 | 0.00 | 0.41 | 0.00 | 94 | 1016.4 |
| 20260906124551 | 75 | 120 | 2.0 | 8.0 | 0.00 | 0.46 | 0.00 | 95 | 1016.2 |
| 20260906123049 | 75 | 129 | 2.0 | 8.0 | 0.00 | 0.46 | 0.00 | 95 | 1016.2 |
| 20260906121556 | 75 | 139 | 4.0 | 11.0 | 0.00 | 0.46 | 0.00 | 95 | 1016.0 |
| 20260906120053 | 75 | 136 | 3.0 | 6.0 | 0.00 | 0.46 | 0.00 | 95 | 1015.8 |
| 20260906114553 | 75 | 147 | 3.0 | 11.0 | 0.00 | 0.47 | 0.00 | 95 | 1015.6 |
| 20260906113050 | 75 | 153 | 4.0 | 8.0 | 0.00 | 0.47 | 0.00 | 95 | 1015.5 |
| 20260906111611 | 75 | 128 | 3.0 | 7.0 | 0.00 | 0.47 | 0.00 | 95 | 1015.2 |
| 20260906110050 | 75 | 79 | 3.0 | 6.0 | 0.00 | 0.47 | 0.00 | 95 | 1015.3 |
| 20260906104546 | 74 | 182 | 4.0 | 9.0 | 0.00 | 0.47 | 0.00 | 95 | 1015.5 |
| 20260906103057 | 74 | 120 | 3.0 | 6.0 | 0.00 | 0.47 | 0.00 | 95 | 1015.1 |
| 20260906101549 | 74 | 155 | 5.0 | 10.0 | 0.00 | 0.47 | 0.00 | 96 | 1015.2 |
| 20260906100053 | 74 | 161 | 3.0 | 8.0 | 0.00 | 0.47 | 0.00 | 96 | 1015.4 |
| 20260906094548 | 74 | 118 | 3.0 | 8.0 | 0.00 | 0.47 | 0.00 | 95 | 1015.4 |
| 20260906093053 | 74 | 141 | 3.0 | 7.0 | 0.00 | 0.47 | 0.00 | 95 | 1015.5 |
| 20260906091550 | 74 | 127 | 3.0 | 6.0 | 0.00 | 0.47 | 0.00 | 95 | 1015.7 |
| 20260906090054 | 74 | 149 | 2.0 | 6.0 | 0.00 | 0.47 | 0.00 | 95 | 1015.6 |
| 20260906084557 | 73 | 165 | 1.0 | 4.0 | 0.00 | 0.47 | 0.00 | 95 | 1015.6 |
| 20260906083054 | 74 | 118 | 0.0 | 3.0 | 0.00 | 0.47 | 0.00 | 95 | 1015.4 |
| 20260906081550 | 74 | 130 | 1.0 | 3.0 | 0.00 | 0.47 | 0.00 | 95 | 1015.2 |
| 20260906080049 | 74 | 0 | 0.0 | 2.0 | 0.00 | 0.47 | 0.00 | 95 | 1015.3 |
| 20260906074548 | 74 | 115 | 0.0 | 3.0 | 0.00 | 0.47 | 0.00 | 95 | 1015.3 |
| 20260906073055 | 74 | 102 | 0.0 | 3.0 | 0.00 | 0.47 | 0.00 | 95 | 1015.2 |
| 20260906071554 | 74 | 0 | 0.0 | 2.0 | 0.00 | 0.47 | 0.00 | 95 | 1015.3 |
| 20260906070046 | 74 | 137 | 1.0 | 4.0 | 0.00 | 0.47 | 0.00 | 95 | 1015.2 |
| 20260906064553 | 74 | 134 | 0.0 | 3.0 | 0.00 | 0.47 | 0.00 | 95 | 1015.4 |
| 20260906063050 | 74 | 140 | 0.0 | 3.0 | 0.00 | 0.47 | 0.00 | 94 | 1015.4 |
| 20260906061549 | 74 | 141 | 1.0 | 4.0 | 0.00 | 0.47 | 0.00 | 94 | 1015.6 |
| 20260906060047 | 74 | 120 | 1.0 | 4.0 | 0.00 | 0.47 | 0.00 | 94 | 1015.7 |
| 20260906054603 | 74 | 120 | 1.0 | 5.0 | 0.00 | 0.47 | 0.00 | 94 | 1015.6 |
| 20260906053101 | 74 | 126 | 1.0 | 4.0 | 0.00 | 0.47 | 0.00 | 93 | 1015.7 |
| 20260906051609 | 74 | 129 | 0.0 | 3.0 | 0.00 | 0.47 | 0.00 | 93 | 1015.7 |
| 20260906050053 | 74 | 0 | 0.0 | 4.0 | 0.00 | 0.47 | 0.00 | 92 | 1015.7 |
| 20260906044553 | 74 | 128 | 1.0 | 7.0 | 0.00 | 0.47 | 0.47 | 92 | 1015.7 |
| 20260906043056 | 74 | 120 | 0.0 | 3.0 | 0.00 | 0.47 | 0.47 | 91 | 1015.7 |
| 20260906041552 | 74 | 139 | 1.0 | 4.0 | 0.00 | 0.47 | 0.47 | 90 | 1015.9 |
| 20260906040128 | 74 | 141 | 2.0 | 6.0 | 0.00 | 0.47 | 0.47 | 90 | 1015.8 |
| 20260906034600 | 74 | 136 | 1.0 | 4.0 | 0.00 | 0.47 | 0.47 | 89 | 1015.7 |
| 20260906033106 | 75 | 157 | 1.0 | 4.0 | 0.00 | 0.47 | 0.47 | 88 | 1015.7 |
| 20260906031550 | 75 | 119 | 1.0 | 5.0 | 0.00 | 0.47 | 0.47 | 87 | 1015.7 |
| 20260906030050 | 75 | 0 | 0.0 | 5.0 | 0.00 | 0.47 | 0.47 | 86 | 1015.8 |
| 20260906024612 | 76 | 57 | 1.0 | 6.0 | 0.00 | 0.47 | 0.47 | 86 | 1015.7 |
| 20260906023100 | 76 | 111 | 2.0 | 5.0 | 0.00 | 0.47 | 0.47 | 85 | 1015.6 |
| 20260906021549 | 76 | 122 | 2.0 | 7.0 | 0.00 | 0.47 | 0.47 | 84 | 1015.5 |
| 20260906020107 | 77 | 108 | 1.0 | 5.0 | 0.00 | 0.47 | 0.47 | 82 | 1015.3 |
| 20260906014553 | 77 | 126 | 1.0 | 5.0 | 0.00 | 0.47 | 0.47 | 81 | 1015.2 |
| 20260906013049 | 78 | 78 | 1.0 | 5.0 | 0.00 | 0.47 | 0.47 | 80 | 1015.3 |
| 20260906011549 | 79 | 100 | 1.0 | 2.0 | 0.00 | 0.47 | 0.47 | 80 | 1015.2 |
| 20260906010059 | 79 | 0 | 1.0 | 5.0 | 0.00 | 0.47 | 0.47 | 78 | 1014.9 |
| 20260906004553 | 80 | 111 | 2.0 | 9.0 | 0.00 | 0.47 | 0.47 | 75 | 1014.7 |
| 20260906003055 | 81 | 127 | 4.0 | 11.0 | 0.00 | 0.47 | 0.47 | 73 | 1014.6 |
| 20260906001551 | 82 | 97 | 4.0 | 10.0 | 0.00 | 0.47 | 0.47 | 71 | 1014.4 |
| 20260906000047 | 83 | 131 | 7.0 | 13.0 | 0.00 | 0.47 | 0.47 | 68 | 1014.4 |
| 20260905234554 | 85 | 117 | 6.0 | 14.0 | 0.00 | 0.47 | 0.47 | 65 | 1014.6 |
| 20260905233058 | 86 | 120 | 5.0 | 13.0 | 0.00 | 0.47 | 0.47 | 63 | 1014.8 |
| 20260905231550 | 86 | 118 | 7.0 | 14.0 | 0.00 | 0.47 | 0.47 | 62 | 1014.6 |
| 20260905230047 | 87 | 139 | 5.0 | 11.0 | 0.00 | 0.47 | 0.47 | 62 | 1014.5 |
| 20260905224612 | 87 | 136 | 6.0 | 14.0 | 0.00 | 0.47 | 0.47 | 60 | 1014.4 |
| 20260905223116 | 87 | 151 | 5.0 | 15.0 | 0.00 | 0.47 | 0.47 | 60 | 1014.2 |
| 20260905221604 | 89 | 148 | 3.0 | 11.0 | 0.00 | 0.47 | 0.47 | 58 | 1014.2 |
| 20260905220108 | 88 | 130 | 5.0 | 10.0 | 0.00 | 0.47 | 0.47 | 56 | 1014.1 |
| 20260905214604 | 89 | 146 | 7.0 | 14.0 | 0.00 | 0.47 | 0.47 | 55 | 1014.0 |
| 20260905213103 | 90 | 140 | 5.0 | 17.0 | 0.00 | 0.47 | 0.47 | 54 | 1014.0 |
| 20260905211603 | 90 | 164 | 8.0 | 17.0 | 0.00 | 0.47 | 0.47 | 54 | 1013.9 |
| 20260905210107 | 91 | 153 | 8.0 | 19.0 | 0.00 | 0.47 | 0.47 | 52 | 1013.8 |
| 20260905204556 | 91 | 142 | 6.0 | 11.0 | 0.00 | 0.47 | 0.47 | 51 | 1013.6 |
| 20260905203052 | 91 | 167 | 5.0 | 12.0 | 0.00 | 0.47 | 0.47 | 49 | 1013.6 |
| 20260905201605 | 91 | 146 | 3.0 | 8.0 | 0.00 | 0.47 | 0.47 | 48 | 1013.6 |
| 20260905200103 | 89 | 129 | 3.0 | 7.0 | 0.00 | 0.47 | 0.47 | 56 | 1013.7 |
| 20260905194556 | 87 | 164 | 6.0 | 13.0 | 0.00 | 0.47 | 0.47 | 56 | 1013.7 |
| 20260905193051 | 87 | 166 | 5.0 | 12.0 | 0.00 | 0.47 | 0.47 | 57 | 1013.5 |
| 20260905191548 | 85 | 127 | 5.0 | 10.0 | 0.00 | 0.47 | 0.47 | 58 | 1013.7 |
| 20260905190048 | 84 | 126 | 6.0 | 13.0 | 0.00 | 0.47 | 0.47 | 59 | 1013.3 |